KCMX

Houghton County Memorial Airport

Hancock, Michigan, USA
METAR KCMX 170753Z AUTO 17006KT 10SM OVC014 M07/M11 A3015 RMK AO2 SLP228 T10671106
Observed Flight Rules
Dec-17 @ 07:53 UTC (24 minutes ago) Marginal Visual Flight Rules
Wind Visibility Clouds
170° at 6 knots 10 miles
  • Overcast at 1,400' AGL
Temperatures Readings
Current -7°C / 19°F
Dewpoint -11°C / 12°F
Humidity 73%
Altimeter 30.15" Hg
Pressure 1022.8 hPa
Elevation 326
METAR KCMX 170753Z AUTO 17006KT 10SM OVC014 M07/M11 A3015 RMK AO2 SLP228 T10671106
Observed Flight Rules
Dec-17 @ 07:53 UTC
(24 minutes ago)
MVFR
Wind Visibility
170° at 6 knots 10 miles
Clouds
  • Overcast at 1,400' AGL
Temperature Dewpoint
-7°C / 19°F -11°C / 12°F
Humidity Altimeter Pressure
73% 30.15" Hg 1022.8 hPa